Time;durP1;ratioP1;P1;durP2;ratioP2;P2;SDS_P1;SDS_P2;PMS_P1;PMS_P2;Temp;Humidity;BMP_temperature;BMP_pressure;BME280_temperature;BME280_humidity;BME280_pressure;Samples;Min_cycle;Max_cycle;Signal;HPM_P1;HPM_P2
2022/02/08 00:02:08;;;;;;;25.27;15.88;;;;;;;-2.08;94.60;97200.09;5057227;28;20461;-58
2022/02/08 00:04:33;;;;;;;20.00;12.30;;;;;;;-2.06;94.23;97200.03;5054233;28;20044;-58
2022/02/08 00:07:02;;;;;;;20.52;13.23;;;;;;;-2.06;93.82;97200.91;5037103;28;20037;-57
2022/02/08 00:09:28;;;;;;;17.65;12.60;;;;;;;-2.04;94.24;97203.44;5053440;28;20056;-56
2022/02/08 00:11:53;;;;;;;27.30;16.50;;;;;;;-2.07;94.68;97203.50;5038654;28;20036;-57
2022/02/08 00:14:19;;;;;;;30.35;19.35;;;;;;;-2.08;93.97;97205.25;5055479;28;20039;-58
2022/02/08 00:16:45;;;;;;;23.17;17.42;;;;;;;-2.13;94.38;97204.47;5054182;28;20036;-56
2022/02/08 00:19:10;;;;;;;27.83;18.50;;;;;;;-2.14;94.51;97194.19;5053306;28;20068;-58
2022/02/08 00:21:36;;;;;;;31.85;19.55;;;;;;;-2.20;95.19;97198.56;5054967;28;20045;-56
2022/02/08 00:24:01;;;;;;;30.27;18.83;;;;;;;-2.25;95.05;97202.94;5054260;28;20506;-57
2022/02/08 00:26:27;;;;;;;26.40;18.83;;;;;;;-2.28;95.28;97207.31;5052670;28;20044;-57
2022/02/08 00:28:52;;;;;;;24.65;15.93;;;;;;;-2.31;94.89;97205.63;5053545;28;20531;-56
2022/02/08 00:31:18;;;;;;;25.85;18.00;;;;;;;-2.34;95.74;97209.09;5034425;28;20049;-57
2022/02/08 00:33:44;;;;;;;24.70;16.92;;;;;;;-2.35;95.38;97204.81;5054291;28;20033;-56
2022/02/08 00:36:09;;;;;;;21.58;15.70;;;;;;;-2.41;95.65;97217.00;5056544;28;20098;-58
2022/02/08 00:38:36;;;;;;;21.13;15.00;;;;;;;-2.45;95.89;97221.34;5051220;28;20106;-57
2022/02/08 00:41:02;;;;;;;17.80;12.60;;;;;;;-2.46;95.40;97210.16;5052396;28;20029;-56
2022/02/08 00:43:36;;;;;;;14.98;10.95;;;;;;;-2.43;95.60;97213.56;5051892;28;20394;-58
2022/02/08 00:46:10;;;;;;;16.05;11.30;;;;;;;-2.48;95.81;97211.06;5052461;28;20033;-58
2022/02/08 00:48:41;;;;;;;16.55;10.55;;;;;;;-2.46;95.92;97223.06;5053400;28;20037;-56
2022/02/08 00:51:08;;;;;;;12.43;9.73;;;;;;;-2.46;95.92;97217.91;5053022;28;20091;-57
2022/02/08 00:53:34;;;;;;;13.80;9.77;;;;;;;-2.44;95.48;97223.03;5052128;28;20071;-58
2022/02/08 00:56:00;;;;;;;14.27;10.85;;;;;;;-2.45;95.67;97214.44;5051738;28;20135;-57
2022/02/08 00:58:25;;;;;;;15.55;12.30;;;;;;;-2.52;96.08;97212.00;5053418;28;20452;-58
2022/02/08 01:00:51;;;;;;;16.25;11.20;;;;;;;-2.54;95.80;97218.88;5053943;28;20040;-57
2022/02/08 01:03:16;;;;;;;12.57;8.77;;;;;;;-2.56;95.83;97218.06;5051697;28;20519;-57
2022/02/08 01:05:47;;;;;;;10.80;8.95;;;;;;;-2.63;95.97;97220.75;5051874;28;20460;-57
2022/02/08 01:08:13;;;;;;;13.63;10.57;;;;;;;-2.60;96.37;97228.44;5051468;28;20033;-56
2022/02/08 01:10:40;;;;;;;11.77;9.73;;;;;;;-2.60;96.09;97225.84;5052549;28;20407;-57
2022/02/08 01:13:07;;;;;;;11.55;10.07;;;;;;;-2.62;95.72;97230.19;5052489;28;20051;-57
2022/02/08 01:15:33;;;;;;;15.02;9.88;;;;;;;-2.66;95.77;97233.69;5035142;28;20403;-57
2022/02/08 01:17:59;;;;;;;13.48;10.07;;;;;;;-2.67;96.70;97239.72;5051903;28;20040;-56
2022/02/08 01:20:38;;;;;;;16.08;10.73;;;;;;;-2.68;96.61;97235.44;5051626;28;20060;-57
2022/02/08 01:23:09;;;;;;;12.35;9.15;;;;;;;-2.72;95.78;97235.50;5050599;28;20048;-54
2022/02/08 01:25:41;;;;;;;13.52;10.27;;;;;;;-2.74;97.04;97238.13;5053540;28;20072;-57
2022/02/08 01:28:24;;;;;;;14.00;10.00;;;;;;;-2.76;97.12;97247.59;5051144;28;20040;-57
2022/02/08 01:38:33;;;;;;;18.05;11.80;;;;;;;-2.77;96.56;97251.03;5050922;28;20044;-58
2022/02/08 01:41:21;;;;;;;13.27;9.25;;;;;;;-2.79;96.82;97253.66;5054002;28;20068;-57
2022/02/08 01:49:30;;;;;;;11.55;7.22;;;;;;;-2.83;96.92;97248.53;5050332;28;20520;-57
2022/02/08 01:51:58;;;;;;;7.18;5.57;;;;;;;-2.83;97.43;97248.53;5049088;28;20048;-56
2022/02/08 01:54:24;;;;;;;8.48;6.30;;;;;;;-2.84;96.67;97250.28;5052425;28;20093;-57
2022/02/08 01:56:51;;;;;;;8.77;5.30;;;;;;;-2.83;97.30;97239.09;5051518;28;20040;-56
2022/02/08 01:59:17;;;;;;;9.43;5.63;;;;;;;-2.85;97.67;97240.84;5052838;28;20048;-56
2022/02/08 02:01:43;;;;;;;8.25;5.90;;;;;;;-2.85;97.20;97234.81;5049890;28;20029;-57
2022/02/08 02:04:09;;;;;;;8.55;7.60;;;;;;;-2.85;97.67;97232.25;5050646;28;20052;-56
2022/02/08 02:06:35;;;;;;;9.98;7.18;;;;;;;-2.88;97.12;97228.84;5049918;28;20072;-57
2022/02/08 02:09:01;;;;;;;9.00;7.30;;;;;;;-2.89;97.48;97228.84;5054033;28;20182;-56
2022/02/08 02:11:26;;;;;;;8.05;7.00;;;;;;;-2.85;97.35;97234.81;5051117;28;20111;-58
2022/02/08 02:13:52;;;;;;;7.10;6.10;;;;;;;-2.90;96.89;97230.59;5050071;28;20491;-57
2022/02/08 02:16:29;;;;;;;8.30;6.30;;;;;;;-2.89;97.63;97231.44;5052548;28;20037;-56
2022/02/08 02:18:54;;;;;;;6.38;5.72;;;;;;;-2.95;97.69;97229.81;5050635;28;20504;-57
2022/02/08 02:21:19;;;;;;;9.50;7.10;;;;;;;-2.98;98.32;97235.00;5051152;28;20047;-57
2022/02/08 02:23:51;;;;;;;7.05;6.28;;;;;;;-2.97;97.65;97228.97;5051275;28;20114;-57
2022/02/08 02:26:17;;;;;;;10.93;7.75;;;;;;;-2.95;97.11;97228.94;5055393;28;20106;-57
2022/02/08 02:28:42;;;;;;;6.95;6.25;;;;;;;-2.95;98.44;97223.78;5052197;28;20036;-58
2022/02/08 02:31:08;;;;;;;8.38;6.75;;;;;;;-2.93;98.21;97215.19;5049621;28;20040;-58
2022/02/08 02:33:33;;;;;;;8.98;6.32;;;;;;;-2.90;97.93;97219.41;5051406;28;20032;-57
2022/02/08 02:35:59;;;;;;;7.13;5.85;;;;;;;-2.90;98.11;97222.00;5051209;28;20049;-55
2022/02/08 02:38:25;;;;;;;13.10;6.25;;;;;;;-2.92;98.24;97224.63;5051251;28;20041;-57
2022/02/08 02:40:53;;;;;;;12.63;7.22;;;;;;;-2.98;98.17;97229.00;5050293;28;20508;-55
2022/02/08 02:43:19;;;;;;;9.93;6.50;;;;;;;-2.99;98.08;97228.13;5050849;28;20041;-56
2022/02/08 02:45:45;;;;;;;11.88;7.30;;;;;;;-2.98;97.79;97227.28;5053437;28;20039;-57
2022/02/08 02:48:11;;;;;;;14.73;7.18;;;;;;;-2.98;97.70;97229.84;5050283;28;20045;-57
2022/02/08 02:50:36;;;;;;;14.00;7.18;;;;;;;-2.99;97.12;97233.28;5052179;28;20041;-58
2022/02/08 02:53:02;;;;;;;16.33;7.95;;;;;;;-3.04;98.35;97232.50;5049431;28;20044;-58
2022/02/08 02:55:32;;;;;;;8.70;6.13;;;;;;;-3.05;97.80;97238.53;5051005;28;20041;-56
2022/02/08 02:57:57;;;;;;;11.00;7.40;;;;;;;-3.07;97.94;97227.38;5050655;28;20094;-57
2022/02/08 03:00:37;;;;;;;14.70;6.47;;;;;;;-3.07;97.93;97235.13;5054280;28;20087;-57
2022/02/08 03:03:32;;;;;;;15.40;6.88;;;;;;;-3.06;98.01;97234.25;5052376;28;20090;-57
2022/02/08 03:19:22;;;;;;;9.73;4.90;;;;;;;-3.19;98.32;97225.81;5055111;28;20044;-54
2022/02/08 03:21:48;;;;;;;4.80;4.00;;;;;;;-3.21;98.20;97228.41;5054117;28;20503;-55
2022/02/08 03:24:13;;;;;;;7.57;4.95;;;;;;;-3.14;98.49;97230.94;5056545;28;20041;-56
2022/02/08 03:26:39;;;;;;;8.45;4.88;;;;;;;-3.14;98.43;97229.19;5054673;28;20504;-57
2022/02/08 03:29:04;;;;;;;7.85;5.22;;;;;;;-3.06;97.84;97229.09;5053495;28;20040;-57
2022/02/08 03:31:29;;;;;;;8.00;5.85;;;;;;;-3.02;98.64;97231.63;5053022;28;20033;-58
2022/02/08 03:33:55;;;;;;;6.97;4.97;;;;;;;-3.05;97.66;97223.94;5052981;28;20036;-56
2022/02/08 03:36:20;;;;;;;8.18;5.45;;;;;;;-3.14;97.96;97228.34;5053025;28;20044;-57
2022/02/08 03:38:58;;;;;;;8.18;5.45;;;;;;;-3.19;98.94;97229.28;5052702;28;20045;-57
2022/02/08 03:41:24;;;;;;;7.78;4.85;;;;;;;-3.18;98.75;97235.25;5052326;28;20505;-56
2022/02/08 03:43:49;;;;;;;7.82;5.10;;;;;;;-3.26;98.56;97232.78;5053079;28;20048;-57
2022/02/08 03:46:17;;;;;;;6.65;5.50;;;;;;;-3.26;99.10;97243.06;5052968;28;20452;-58
2022/02/08 03:48:44;;;;;;;5.10;4.60;;;;;;;-3.29;99.31;97245.69;5053310;28;20025;-56
2022/02/08 03:51:15;;;;;;;8.07;4.72;;;;;;;-3.29;98.79;97240.53;5052808;28;20124;-56
2022/02/08 03:53:43;;;;;;;5.20;4.63;;;;;;;-3.27;98.89;97245.69;5052640;28;20112;-57
2022/02/08 03:56:11;;;;;;;6.15;4.13;;;;;;;-3.29;98.87;97240.53;5052246;28;20508;-57
2022/02/08 03:58:37;;;;;;;7.70;5.28;;;;;;;-3.30;99.10;97238.84;5052503;28;20603;-54
2022/02/08 04:01:31;;;;;;;4.55;4.15;;;;;;;-3.31;98.87;97247.44;5051141;28;20037;-57
2022/02/08 04:06:34;;;;;;;7.63;4.35;;;;;;;-3.34;98.61;97243.16;5048694;28;20499;-55
2022/02/08 04:09:00;;;;;;;8.00;5.10;;;;;;;-3.38;98.85;97246.66;5050808;28;20037;-57
2022/02/08 04:11:25;;;;;;;4.50;4.10;;;;;;;-3.37;99.42;97252.69;5052565;28;20037;-57
2022/02/08 04:13:57;;;;;;;4.97;4.45;;;;;;;-3.32;98.48;97256.03;5052559;28;20408;-56
2022/02/08 04:16:36;;;;;;;8.50;7.70;;;;;;;-3.31;99.52;97260.31;5052149;28;20044;-57
2022/02/08 04:19:24;;;;;;;11.38;5.60;;;;;;;-3.29;99.00;97255.16;5052544;28;20331;-58
2022/02/08 04:38:07;;;;;;;5.00;4.50;;;;;;;-3.29;99.13;97263.72;5050777;28;20102;-56
2022/02/08 04:40:53;;;;;;;5.25;4.45;;;;;;;-3.29;99.73;97265.47;5048134;28;20045;-56
2022/02/08 04:45:56;;;;;;;6.60;4.35;;;;;;;-3.22;99.80;97267.94;5051679;28;20428;-57
2022/02/08 04:51:01;;;;;;;5.18;4.07;;;;;;;-3.24;98.71;97254.22;5050433;28;20059;-56
2022/02/08 04:53:35;;;;;;;4.75;4.30;;;;;;;-3.29;99.35;97250.00;5050653;28;20444;-57
2022/02/08 04:56:22;;;;;;;4.97;4.47;;;;;;;-3.33;98.80;97246.59;5050671;28;20409;-53
2022/02/08 04:59:14;;;;;;;5.25;4.75;;;;;;;-3.37;99.58;97239.78;5051410;28;20045;-57
2022/02/08 05:02:01;;;;;;;5.80;4.50;;;;;;;-3.39;98.51;97254.41;5047378;28;20503;-57
2022/02/08 05:42:27;;;;;;;5.88;4.85;;;;;;;-3.68;99.15;97282.19;5050227;28;20040;-55
2022/02/08 05:45:11;;;;;;;7.10;5.05;;;;;;;-3.73;99.30;97289.09;5047692;28;20033;-57
2022/02/08 05:47:42;;;;;;;5.28;4.78;;;;;;;-3.75;99.62;97296.84;5048472;28;20037;-57
2022/02/08 05:50:25;;;;;;;5.65;5.15;;;;;;;-3.80;99.42;97293.47;5050080;28;20048;-56
2022/02/08 05:55:37;;;;;;;6.32;4.45;;;;;;;-3.78;99.91;97294.28;5018761;28;20088;-56
2022/02/08 05:58:03;;;;;;;4.85;4.00;;;;;;;-3.76;99.27;97302.84;5049864;28;20045;-56
2022/02/08 06:00:29;;;;;;;3.78;3.47;;;;;;;-3.68;98.99;97300.19;5049920;28;20111;-56
2022/02/08 06:02:59;;;;;;;6.97;3.88;;;;;;;-3.71;98.91;97299.38;5030783;28;20040;-55
2022/02/08 06:05:24;;;;;;;4.32;4.03;;;;;;;-3.75;99.82;97299.41;5032454;28;20044;-57
2022/02/08 06:07:50;;;;;;;4.35;3.95;;;;;;;-3.76;99.93;97305.41;5049655;28;20045;-56
2022/02/08 06:10:16;;;;;;;4.55;4.00;;;;;;;-3.76;99.43;97301.97;5049982;28;20029;-55
2022/02/08 06:12:54;;;;;;;4.78;4.35;;;;;;;-3.75;99.26;97299.41;5049818;28;20044;-56
2022/02/08 06:15:22;;;;;;;4.60;4.20;;;;;;;-3.72;98.61;97302.81;5047983;28;20508;-56
2022/02/08 06:17:49;;;;;;;5.93;4.80;;;;;;;-3.72;98.48;97305.38;5049862;28;20039;-56
2022/02/08 06:20:15;;;;;;;27.92;18.52;;;;;;;-3.70;98.50;97304.53;5043131;28;20083;-57
2022/02/08 06:22:41;;;;;;;30.98;21.20;;;;;;;-3.67;98.03;97319.06;5049264;28;20052;-55
2022/02/08 06:25:10;;;;;;;30.00;19.02;;;;;;;-3.65;98.01;97312.19;5049947;28;20439;-56
2022/02/08 06:27:36;;;;;;;19.33;14.07;;;;;;;-3.74;98.86;97319.13;5044740;28;20033;-56
2022/02/08 06:30:03;;;;;;;20.02;13.73;;;;;;;-3.76;98.92;97318.28;5048377;28;20072;-56
2022/02/08 06:32:31;;;;;;;11.30;9.32;;;;;;;-3.78;100.00;97320.03;5049123;28;20045;-56
2022/02/08 06:34:58;;;;;;;12.32;9.38;;;;;;;-3.77;100.00;97316.59;5049563;28;20040;-56
2022/02/08 06:37:26;;;;;;;19.38;13.07;;;;;;;-3.75;100.00;97312.28;5049314;28;20061;-54
2022/02/08 06:39:51;;;;;;;24.50;14.68;;;;;;;-3.74;100.00;97324.28;5049156;28;20036;-56
2022/02/08 06:42:17;;;;;;;22.45;14.05;;;;;;;-3.73;100.00;97314.84;5051739;28;20033;-56
2022/02/08 06:44:43;;;;;;;19.70;13.98;;;;;;;-3.68;100.00;97315.66;5052926;28;20075;-58
2022/02/08 06:47:08;;;;;;;16.83;11.98;;;;;;;-3.61;100.00;97319.03;5053402;28;20065;-55
2022/02/08 06:49:34;;;;;;;20.73;13.60;;;;;;;-3.62;100.00;97317.31;5053236;28;20041;-56
2022/02/08 06:51:59;;;;;;;20.02;13.65;;;;;;;-3.60;100.00;97323.31;5053498;28;20068;-56
2022/02/08 06:54:25;;;;;;;17.73;11.35;;;;;;;-3.61;99.63;97337.06;5052530;28;20044;-56
2022/02/08 06:56:50;;;;;;;18.98;13.95;;;;;;;-3.65;99.87;97340.50;5053213;28;20029;-54
2022/02/08 06:59:18;;;;;;;15.45;13.05;;;;;;;-3.64;100.00;97342.22;5052620;28;20094;-55
2022/02/08 07:01:45;;;;;;;20.77;17.48;;;;;;;-3.65;99.89;97353.38;5033971;28;20049;-56
2022/02/08 07:04:15;;;;;;;17.95;16.05;;;;;;;-3.69;99.82;97357.72;5051266;28;20040;-56
2022/02/08 07:06:46;;;;;;;15.65;14.05;;;;;;;-3.71;100.00;97363.72;5047709;28;20130;-55
2022/02/08 07:09:13;;;;;;;13.18;11.65;;;;;;;-3.71;99.70;97367.16;5051484;28;20496;-56
2022/02/08 07:11:39;;;;;;;13.00;11.15;;;;;;;-3.71;100.00;97363.72;5051009;28;20091;-57
2022/02/08 07:14:05;;;;;;;11.68;9.90;;;;;;;-3.72;100.00;97370.63;5050328;28;20025;-57
2022/02/08 07:16:32;;;;;;;15.05;10.85;;;;;;;-3.68;100.00;97366.28;5051479;28;20041;-56
2022/02/08 07:18:57;;;;;;;16.45;11.25;;;;;;;-3.68;100.00;97368.84;5052654;28;20032;-57
2022/02/08 07:21:23;;;;;;;11.50;10.30;;;;;;;-3.69;99.85;97372.28;5053286;28;20040;-55
2022/02/08 07:23:48;;;;;;;12.00;9.82;;;;;;;-3.69;99.84;97362.84;5052605;28;20041;-57
2022/02/08 07:26:13;;;;;;;12.73;8.60;;;;;;;-3.68;99.65;97368.84;5052709;28;20025;-56
2022/02/08 07:28:42;;;;;;;14.00;9.38;;;;;;;-3.68;100.00;97369.72;5052244;28;20036;-57
2022/02/08 07:31:19;;;;;;;10.73;9.15;;;;;;;-3.68;99.93;97371.41;5052294;28;20041;-55
2022/02/08 07:33:54;;;;;;;10.85;8.80;;;;;;;-3.65;100.00;97382.56;5050171;28;20107;-55
2022/02/08 07:38:45;;;;;;;9.27;8.40;;;;;;;-3.63;99.99;97373.09;5051505;28;20504;-56
2022/02/08 07:43:36;;;;;;;16.88;13.90;;;;;;;-3.55;100.00;97372.16;5053037;28;20512;-55
2022/02/08 07:46:02;;;;;;;12.40;8.75;;;;;;;-3.59;100.00;97373.94;5051925;28;20114;-56
2022/02/08 07:48:27;;;;;;;10.20;7.70;;;;;;;-3.62;100.00;97387.69;5053243;28;20040;-54
2022/02/08 07:50:54;;;;;;;11.05;8.00;;;;;;;-3.57;100.00;97379.91;5052227;28;20081;-56
2022/02/08 07:53:22;;;;;;;13.00;7.75;;;;;;;-3.53;100.00;97380.75;5050317;28;20068;-55
2022/02/08 07:55:48;;;;;;;13.95;8.55;;;;;;;-3.49;100.00;97387.59;5052673;28;20056;-56
2022/02/08 07:58:13;;;;;;;10.07;8.38;;;;;;;-3.47;100.00;97378.13;5052610;28;20036;-57
2022/02/08 08:00:39;;;;;;;9.73;7.35;;;;;;;-3.43;100.00;97371.19;5050621;28;20766;-56
2022/02/08 08:03:06;;;;;;;9.40;6.82;;;;;;;-3.43;99.92;97366.91;5050704;28;20076;-58
2022/02/08 08:05:32;;;;;;;8.43;6.75;;;;;;;-3.41;100.00;97370.31;5050006;28;20057;-56
2022/02/08 08:07:58;;;;;;;9.60;7.80;;;;;;;-3.37;99.78;97368.59;5050895;28;20420;-58
2022/02/08 08:10:29;;;;;;;8.35;7.47;;;;;;;-3.35;99.58;97364.25;5034231;28;20045;-56
2022/02/08 08:12:55;;;;;;;8.00;7.22;;;;;;;-3.34;99.70;97365.97;5050741;28;20049;-56
2022/02/08 08:20:23;;;;;;;7.93;6.45;;;;;;;-3.25;100.00;97365.88;5050929;28;20036;-57
2022/02/08 08:22:48;;;;;;;10.73;6.95;;;;;;;-3.21;100.00;97358.97;5051301;28;20195;-57
2022/02/08 08:25:14;;;;;;;9.30;7.03;;;;;;;-3.15;100.00;97360.63;5029661;28;20108;-57
2022/02/08 08:27:40;;;;;;;7.82;7.15;;;;;;;-3.11;100.00;97362.31;5051566;28;20056;-56
2022/02/08 08:30:07;;;;;;;11.25;7.25;;;;;;;-3.09;100.00;97357.97;5051507;28;20033;-57
2022/02/08 08:32:32;;;;;;;11.05;7.63;;;;;;;-3.09;100.00;97368.28;5051490;28;20044;-59
2022/02/08 08:34:57;;;;;;;11.07;8.23;;;;;;;-3.07;100.00;97370.00;5050993;28;20411;-56
2022/02/08 08:37:23;;;;;;;10.15;9.15;;;;;;;-3.04;100.00;97364.78;5051807;28;20041;-57
2022/02/08 08:39:51;;;;;;;11.90;9.02;;;;;;;-2.96;100.00;97372.44;5051588;28;20029;-57
2022/02/08 08:50:44;;;;;;;12.73;9.07;;;;;;;-2.52;100.00;97362.44;5050879;28;20063;-56
2022/02/08 08:53:07;;;;;;;16.08;10.98;;;;;;;-1.90;99.45;97364.13;5047393;28;20040;-57
2022/02/08 08:55:32;;;;;;;12.93;11.35;;;;;;;-1.23;98.66;97363.00;5051243;28;20049;-57
2022/02/08 08:57:58;;;;;;;13.95;11.13;;;;;;;-0.78;95.18;97369.03;5051000;28;20037;-58
2022/02/08 09:00:23;;;;;;;15.32;10.07;;;;;;;-0.22;93.66;97363.59;5051697;28;20501;-57
2022/02/08 09:02:48;;;;;;;27.77;20.17;;;;;;;0.13;91.65;97356.72;5049995;28;20033;-57
2022/02/08 09:05:15;;;;;;;33.75;23.92;;;;;;;0.27;91.45;97351.19;5050535;28;20515;-58
2022/02/08 09:07:42;;;;;;;37.97;24.73;;;;;;;0.38;90.96;97350.09;5050860;28;20106;-57
2022/02/08 09:10:09;;;;;;;27.48;19.23;;;;;;;0.52;89.79;97352.34;5050361;28;20037;-58
2022/02/08 09:13:07;;;;;;;30.02;15.00;;;;;;;0.63;89.91;97355.50;5051212;28;20039;-58
2022/02/08 09:18:25;;;;;;;17.65;13.10;;;;;;;1.11;86.84;97349.03;5012768;28;20041;-59
2022/02/08 09:28:57;;;;;;;5.65;5.15;;;;;;;1.71;85.19;97346.47;5050474;28;20044;-59
2022/02/08 09:31:23;;;;;;;4.43;4.03;;;;;;;1.96;86.30;97350.91;5050582;28;20040;-59
2022/02/08 09:33:49;;;;;;;6.85;3.90;;;;;;;2.18;86.11;97342.41;5049458;28;20037;-58
2022/02/08 09:36:16;;;;;;;4.22;3.80;;;;;;;2.49;83.50;97346.59;5049288;28;20037;-60
2022/02/08 09:38:42;;;;;;;4.15;3.47;;;;;;;2.85;78.44;97350.59;5050235;28;20033;-59
2022/02/08 09:41:09;;;;;;;6.95;4.45;;;;;;;3.27;76.76;97349.16;5050430;28;20043;-59
2022/02/08 09:43:37;;;;;;;9.40;6.90;;;;;;;3.55;77.30;97348.13;5050211;28;20032;-58
2022/02/08 09:46:05;;;;;;;11.48;5.45;;;;;;;3.77;74.95;97348.16;5050521;28;20061;-60
2022/02/08 09:48:56;;;;;;;3.60;3.30;;;;;;;3.87;74.48;97348.66;5050050;28;20036;-59
2022/02/08 09:51:23;;;;;;;2.72;2.58;;;;;;;4.09;75.96;97353.00;5043643;28;20045;-59
2022/02/08 09:53:50;;;;;;;3.35;3.05;;;;;;;4.18;74.37;97347.44;5049998;28;20137;-59
2022/02/08 09:56:15;;;;;;;3.35;3.08;;;;;;;4.10;71.32;97334.69;5047332;28;20045;-59
2022/02/08 09:58:41;;;;;;;3.97;2.63;;;;;;;4.11;70.92;97348.59;5047515;28;20710;-57
2022/02/08 10:01:13;;;;;;;3.42;3.13;;;;;;;4.22;70.52;97330.75;5047342;28;20420;-57
2022/02/08 10:03:50;;;;;;;3.88;3.20;;;;;;;4.59;70.96;97333.59;5030884;28;20140;-58
2022/02/08 10:06:16;;;;;;;5.15;3.10;;;;;;;4.71;69.83;97334.84;5044509;28;20051;-59
2022/02/08 10:08:41;;;;;;;3.53;2.85;;;;;;;4.97;69.14;97331.13;5025114;28;20030;-58
2022/02/08 10:11:22;;;;;;;2.50;2.30;;;;;;;4.67;66.14;97328.06;5048130;28;20087;-57
2022/02/08 10:14:17;;;;;;;3.25;2.95;;;;;;;4.86;66.31;97326.38;5047958;28;20124;-57
2022/02/08 10:22:18;;;;;;;2.80;2.55;;;;;;;4.83;63.98;97329.09;5048196;28;20428;-58
2022/02/08 10:24:49;;;;;;;2.55;2.35;;;;;;;5.18;62.94;97330.22;5048569;28;20033;-57
2022/02/08 10:27:39;;;;;;;3.00;2.80;;;;;;;5.44;60.80;97335.16;5047122;28;20049;-58
2022/02/08 10:38:21;;;;;;;3.97;2.97;;;;;;;5.81;59.52;97326.50;5047820;28;20052;-57
2022/02/08 10:40:47;;;;;;;2.83;2.63;;;;;;;6.05;59.50;97324.53;5047889;28;20481;-60
2022/02/08 10:43:18;;;;;;;2.63;2.42;;;;;;;6.30;56.44;97332.06;5048087;28;20033;-60
2022/02/08 10:45:45;;;;;;;2.90;2.70;;;;;;;6.35;56.41;97325.75;5047549;28;20043;-60
2022/02/08 10:48:22;;;;;;;6.35;2.42;;;;;;;6.63;56.45;97325.22;5047922;28;20067;-60
2022/02/08 10:50:54;;;;;;;3.30;2.80;;;;;;;6.87;55.46;97324.91;5030237;28;20053;-60
2022/02/08 10:53:22;;;;;;;2.80;2.60;;;;;;;6.81;55.23;97317.34;5047263;28;20045;-60
2022/02/08 10:56:03;;;;;;;3.58;2.92;;;;;;;7.14;55.64;97314.75;5047071;28;20037;-60
2022/02/08 11:03:36;;;;;;;3.57;3.23;;;;;;;6.92;51.93;97296.72;5048048;28;20048;-60
2022/02/08 11:11:46;;;;;;;3.03;2.72;;;;;;;7.50;53.32;97270.94;5035376;28;20043;-59
2022/02/08 11:20:03;;;;;;;3.40;2.97;;;;;;;8.15;49.85;97261.25;5047559;28;20538;-60
2022/02/08 11:22:58;;;;;;;5.88;4.18;;;;;;;8.20;49.17;97253.13;5045500;28;20033;-60
2022/02/08 11:25:32;;;;;;;5.10;3.72;;;;;;;8.17;48.04;97254.13;5048475;28;20119;-60
2022/02/08 11:31:12;;;;;;;2.58;2.38;;;;;;;8.45;46.97;97244.63;5049968;28;20043;-59
2022/02/08 11:47:14;;;;;;;2.90;2.55;;;;;;;9.29;43.88;97239.66;5050885;28;20037;-60
2022/02/08 11:53:12;;;;;;;4.28;2.28;;;;;;;9.20;44.61;97224.47;5050165;28;20052;-60
2022/02/08 12:00:18;;;;;;;3.47;2.50;;;;;;;10.46;42.25;97219.88;5053258;28;20446;-60
2022/02/08 12:02:53;;;;;;;2.28;2.17;;;;;;;10.70;41.56;97213.88;5050998;28;20128;-60
2022/02/08 12:07:54;;;;;;;2.97;2.60;;;;;;;10.80;41.29;97212.31;5050615;28;20512;-60
2022/02/08 12:10:43;;;;;;;3.03;2.58;;;;;;;11.01;40.81;97214.41;5052042;28;20041;-60
2022/02/08 12:54:26;;;;;;;4.28;2.80;;;;;;;9.39;44.33;97238.13;5051463;28;20523;-59
2022/02/08 13:05:18;;;;;;;3.33;3.03;;;;;;;8.68;44.05;97224.06;5051540;28;20195;-59
2022/02/08 14:09:01;;;;;;;4.90;3.30;;;;;;;10.28;42.55;97137.72;5048912;28;20025;-59
2022/02/08 14:34:44;;;;;;;6.30;2.88;;;;;;;9.86;43.01;97133.44;5048326;28;20044;-59
2022/02/08 15:10:15;;;;;;;4.55;3.92;;;;;;;8.88;45.92;97109.94;5051338;28;20044;-59
2022/02/08 15:12:43;;;;;;;5.57;3.97;;;;;;;8.71;46.11;97108.34;5050586;28;20501;-59
2022/02/08 15:15:21;;;;;;;5.35;3.60;;;;;;;8.61;45.58;97113.34;5050760;28;20566;-59
2022/02/08 15:17:47;;;;;;;3.08;2.88;;;;;;;9.24;44.25;97123.47;5051699;28;20033;-59
2022/02/08 15:20:12;;;;;;;5.07;4.53;;;;;;;8.80;45.36;97107.78;5052006;28;20115;-58
2022/02/08 15:22:39;;;;;;;10.23;3.47;;;;;;;8.95;45.27;97107.75;5051578;28;20033;-59
2022/02/08 15:25:10;;;;;;;3.50;3.15;;;;;;;8.59;45.95;97116.06;5051674;28;20052;-59
2022/02/08 15:27:37;;;;;;;5.78;3.80;;;;;;;8.51;46.44;97123.59;5049967;28;20497;-58
2022/02/08 15:30:03;;;;;;;7.32;3.65;;;;;;;8.27;47.12;97113.56;5052312;28;20044;-59
2022/02/08 15:32:29;;;;;;;5.40;3.13;;;;;;;8.39;46.64;97117.25;5051422;28;20033;-58
2022/02/08 15:34:54;;;;;;;4.22;3.83;;;;;;;8.39;46.52;97114.63;5051278;28;20503;-58
2022/02/08 15:37:19;;;;;;;5.68;3.90;;;;;;;7.99;48.12;97117.03;5051706;28;20128;-59
2022/02/08 15:39:45;;;;;;;4.93;3.83;;;;;;;7.66;49.24;97118.06;5033552;28;20051;-59
2022/02/08 15:42:10;;;;;;;4.45;4.05;;;;;;;7.62;49.69;97122.63;5051436;28;20044;-58
2022/02/08 15:44:39;;;;;;;4.15;3.63;;;;;;;7.69;49.60;97125.75;5051185;28;20037;-58
2022/02/08 15:47:06;;;;;;;5.03;3.63;;;;;;;7.74;49.06;97115.84;5051101;28;20028;-58
2022/02/08 15:49:33;;;;;;;4.45;3.63;;;;;;;7.38;50.03;97122.25;5048712;28;20060;-58
2022/02/08 15:52:14;;;;;;;4.32;3.92;;;;;;;7.10;51.16;97127.25;5051148;28;20060;-58
2022/02/08 15:54:44;;;;;;;7.88;3.92;;;;;;;6.90;53.60;97123.13;5047999;28;20070;-58
2022/02/08 16:05:24;;;;;;;6.93;5.13;;;;;;;5.79;59.34;97124.50;5050418;28;20133;-58
2022/02/08 16:07:58;;;;;;;8.88;5.13;;;;;;;5.69;59.29;97132.81;5050578;28;20257;-58
2022/02/08 16:10:31;;;;;;;6.90;4.55;;;;;;;5.43;60.29;97132.31;5051025;28;20112;-58
2022/02/08 16:13:15;;;;;;;8.20;4.20;;;;;;;5.36;60.63;97123.06;5048621;28;20036;-58
2022/02/08 16:18:32;;;;;;;8.25;5.10;;;;;;;5.04;62.95;97116.78;5050338;28;20043;-58
2022/02/08 16:21:26;;;;;;;8.40;5.72;;;;;;;4.93;63.34;97112.94;5050636;28;20475;-60
2022/02/08 16:54:20;;;;;;;17.05;10.20;;;;;;;3.43;71.65;97117.69;5049285;28;20090;-60
2022/02/08 16:59:25;;;;;;;12.02;7.70;;;;;;;3.20;74.63;97121.19;5049664;28;20427;-61
2022/02/08 17:01:51;;;;;;;9.98;8.35;;;;;;;3.05;75.35;97120.91;5050650;28;20080;-60
2022/02/08 17:04:17;;;;;;;11.23;8.55;;;;;;;3.02;74.54;97118.44;5050067;28;20059;-60
2022/02/08 17:06:43;;;;;;;10.55;8.77;;;;;;;2.97;74.41;97118.59;5050678;28;20037;-60
2022/02/08 17:09:13;;;;;;;9.63;7.78;;;;;;;2.85;75.11;97114.72;5051636;28;20043;-61
2022/02/08 17:44:57;;;;;;;18.23;13.90;;;;;;;2.13;79.45;97116.50;5047810;28;20060;-57
2022/02/08 17:45:20;;;;;;;14.68;13.13;;;;;;;1.91;80.34;97119.00;5049145;28;20035;-54
2022/02/08 17:46:16;;;;;;;17.55;13.05;;;;;;;1.84;79.35;97110.59;5048981;28;20044;-55
2022/02/08 17:48:42;;;;;;;15.82;12.10;;;;;;;1.80;79.83;97116.78;5049890;28;20036;-55
2022/02/08 17:51:07;;;;;;;54.10;35.55;;;;;;;1.67;80.17;97118.97;5049169;28;20527;-56
2022/02/08 17:53:33;;;;;;;35.88;27.15;;;;;;;1.61;80.42;97123.50;5049179;28;20524;-56
2022/02/08 17:55:58;;;;;;;39.88;30.13;;;;;;;1.55;80.87;97125.41;5049419;28;20112;-56
2022/02/08 17:58:23;;;;;;;39.80;27.15;;;;;;;1.52;80.35;97128.09;5049175;28;20033;-56
2022/02/08 18:00:53;;;;;;;33.83;23.98;;;;;;;1.45;81.58;97136.16;5049325;28;20083;-57
2022/02/08 18:03:18;;;;;;;26.88;19.77;;;;;;;1.37;81.04;97134.63;5048149;28;20484;-56
2022/02/08 18:05:44;;;;;;;25.77;21.05;;;;;;;1.30;81.67;97138.31;5049573;28;20047;-58
2022/02/08 18:08:14;;;;;;;34.05;27.75;;;;;;;1.27;80.69;97135.84;5048648;28;20037;-56
2022/02/08 18:10:48;;;;;;;37.05;28.10;;;;;;;1.24;81.14;97139.38;5047727;28;20029;-56
2022/02/08 18:13:17;;;;;;;30.67;24.63;;;;;;;1.13;82.00;97136.28;5050422;28;20037;-56
2022/02/08 18:15:42;;;;;;;25.02;19.00;;;;;;;1.09;82.53;97147.63;5050068;28;20033;-57
2022/02/08 18:18:19;;;;;;;30.25;24.75;;;;;;;1.09;82.50;97160.59;5049370;28;20451;-59
2022/02/08 18:20:50;;;;;;;44.53;30.05;;;;;;;1.13;81.69;97159.63;5047915;28;20033;-55
2022/02/08 19:11:48;;;;;;;30.63;24.90;;;;;;;0.27;85.17;97174.19;5049824;28;20044;-58
2022/02/08 19:21:36;;;;;;;31.10;23.35;;;;;;;0.03;87.14;97175.69;5052903;28;20028;-56
2022/02/08 19:24:02;;;;;;;26.27;20.80;;;;;;;-0.01;87.64;97175.78;5052390;28;20041;-57
2022/02/08 19:26:28;;;;;;;30.73;22.45;;;;;;;-0.03;87.11;97168.91;5051902;28;20075;-55
2022/02/08 19:28:54;;;;;;;25.98;20.73;;;;;;;-0.06;87.67;97171.59;5053101;28;20025;-55
2022/02/08 19:31:20;;;;;;;24.50;17.58;;;;;;;-0.08;87.62;97170.78;5051593;28;20033;-58
2022/02/08 19:33:49;;;;;;;32.38;21.67;;;;;;;-0.07;86.76;97175.94;5048749;28;20067;-57